sensor_id;sensor_type;location;lat;lon;timestamp;pressure;altitude;pressure_sealevel;temperature;humidity
13050;BME280;6591;51.446;5.404;2024-02-21T00:01:32;101935.78;;;16.13;54.43
13050;BME280;6591;51.446;5.404;2024-02-21T00:03:59;101933.41;;;16.07;54.55
13050;BME280;6591;51.446;5.404;2024-02-21T00:06:27;101946.16;;;16.02;54.28
13050;BME280;6591;51.446;5.404;2024-02-21T00:08:54;101933.94;;;15.96;54.55
13050;BME280;6591;51.446;5.404;2024-02-21T00:11:21;101940.41;;;15.92;54.66
13050;BME280;6591;51.446;5.404;2024-02-21T00:13:48;101945.13;;;15.87;54.67
13050;BME280;6591;51.446;5.404;2024-02-21T00:16:15;101956.00;;;15.84;54.41
13050;BME280;6591;51.446;5.404;2024-02-21T00:18:44;101954.31;;;15.82;54.48
13050;BME280;6591;51.446;5.404;2024-02-21T00:21:11;101954.41;;;15.80;54.82
13050;BME280;6591;51.446;5.404;2024-02-21T00:23:45;101950.00;;;15.79;54.85
13050;BME280;6591;51.446;5.404;2024-02-21T00:26:17;101939.28;;;15.79;55.07
13050;BME280;6591;51.446;5.404;2024-02-21T00:28:44;101941.03;;;15.80;55.22
13050;BME280;6591;51.446;5.404;2024-02-21T00:31:11;101940.94;;;15.82;55.21
13050;BME280;6591;51.446;5.404;2024-02-21T00:33:38;101927.47;;;15.83;54.79
13050;BME280;6591;51.446;5.404;2024-02-21T00:36:06;101921.19;;;15.84;55.11
13050;BME280;6591;51.446;5.404;2024-02-21T00:38:33;101918.56;;;15.83;55.04
13050;BME280;6591;51.446;5.404;2024-02-21T00:41:00;101906.97;;;15.82;54.93
13050;BME280;6591;51.446;5.404;2024-02-21T00:43:27;101904.47;;;15.79;54.80
13050;BME280;6591;51.446;5.404;2024-02-21T00:45:54;101898.47;;;15.74;54.76
13050;BME280;6591;51.446;5.404;2024-02-21T00:48:21;101899.47;;;15.72;54.49
13050;BME280;6591;51.446;5.404;2024-02-21T00:50:49;101884.53;;;15.67;54.38
13050;BME280;6591;51.446;5.404;2024-02-21T00:53:16;101879.41;;;15.63;54.31
13050;BME280;6591;51.446;5.404;2024-02-21T00:55:43;101875.16;;;15.59;54.71
13050;BME280;6591;51.446;5.404;2024-02-21T00:58:10;101877.97;;;15.56;54.80
13050;BME280;6591;51.446;5.404;2024-02-21T01:00:37;101869.25;;;15.51;54.84
13050;BME280;6591;51.446;5.404;2024-02-21T01:03:04;101887.22;;;15.49;55.05
13050;BME280;6591;51.446;5.404;2024-02-21T01:05:31;101888.16;;;15.48;55.24
13050;BME280;6591;51.446;5.404;2024-02-21T01:07:58;101886.34;;;15.48;55.24
13050;BME280;6591;51.446;5.404;2024-02-21T01:10:25;101884.53;;;15.49;55.21
13050;BME280;6591;51.446;5.404;2024-02-21T01:12:52;101878.31;;;15.48;55.29
13050;BME280;6591;51.446;5.404;2024-02-21T01:15:19;101887.09;;;15.52;55.54
13050;BME280;6591;51.446;5.404;2024-02-21T01:17:47;101871.03;;;15.52;55.38
13050;BME280;6591;51.446;5.404;2024-02-21T01:20:14;101865.50;;;15.55;55.35
13050;BME280;6591;51.446;5.404;2024-02-21T01:22:41;101858.44;;;15.54;55.39
13050;BME280;6591;51.446;5.404;2024-02-21T01:25:08;101846.78;;;15.55;55.27
13050;BME280;6591;51.446;5.404;2024-02-21T01:27:35;101844.09;;;15.55;55.09
13050;BME280;6591;51.446;5.404;2024-02-21T01:30:03;101849.53;;;15.53;55.01
13050;BME280;6591;51.446;5.404;2024-02-21T01:32:30;101853.16;;;15.52;55.16
13050;BME280;6591;51.446;5.404;2024-02-21T01:34:57;101853.25;;;15.49;55.29
13050;BME280;6591;51.446;5.404;2024-02-21T01:37:24;101846.97;;;15.50;55.44
13050;BME280;6591;51.446;5.404;2024-02-21T01:39:52;101846.09;;;15.50;55.58
13050;BME280;6591;51.446;5.404;2024-02-21T01:42:19;101845.13;;;15.52;55.49
13050;BME280;6591;51.446;5.404;2024-02-21T01:44:46;101834.25;;;15.55;55.40
13050;BME280;6591;51.446;5.404;2024-02-21T01:47:14;101831.50;;;15.57;55.76
13050;BME280;6591;51.446;5.404;2024-02-21T01:49:41;101833.09;;;15.61;55.78
13050;BME280;6591;51.446;5.404;2024-02-21T01:52:12;101837.50;;;15.62;55.58
13050;BME280;6591;51.446;5.404;2024-02-21T01:54:41;101832.84;;;15.65;55.69
13050;BME280;6591;51.446;5.404;2024-02-21T01:57:08;101825.63;;;15.67;55.21
13050;BME280;6591;51.446;5.404;2024-02-21T01:59:35;101832.53;;;15.72;55.46
13050;BME280;6591;51.446;5.404;2024-02-21T02:02:02;101829.84;;;15.72;55.29
13050;BME280;6591;51.446;5.404;2024-02-21T02:04:30;101831.53;;;15.74;55.44
13050;BME280;6591;51.446;5.404;2024-02-21T02:07:02;101835.16;;;15.73;55.29
13050;BME280;6591;51.446;5.404;2024-02-21T02:09:30;101838.53;;;15.77;55.67
13050;BME280;6591;51.446;5.404;2024-02-21T02:11:58;101827.75;;;15.78;55.91
13050;BME280;6591;51.446;5.404;2024-02-21T02:14:26;101819.53;;;15.81;55.37
13050;BME280;6591;51.446;5.404;2024-02-21T02:16:53;101816.88;;;15.81;55.19
13050;BME280;6591;51.446;5.404;2024-02-21T02:19:20;101807.03;;;15.82;55.40
13050;BME280;6591;51.446;5.404;2024-02-21T02:21:53;101809.00;;;15.78;55.02
13050;BME280;6591;51.446;5.404;2024-02-21T02:24:24;101809.00;;;15.78;55.05
13050;BME280;6591;51.446;5.404;2024-02-21T02:26:54;101807.25;;;15.77;54.95
13050;BME280;6591;51.446;5.404;2024-02-21T02:29:21;101797.50;;;15.76;55.32
13050;BME280;6591;51.446;5.404;2024-02-21T02:31:49;101779.59;;;15.77;55.15
13050;BME280;6591;51.446;5.404;2024-02-21T02:34:16;101781.41;;;15.76;55.14
13050;BME280;6591;51.446;5.404;2024-02-21T02:36:43;101778.75;;;15.76;54.93
13050;BME280;6591;51.446;5.404;2024-02-21T02:39:10;101784.09;;;15.76;55.03
13050;BME280;6591;51.446;5.404;2024-02-21T02:41:37;101780.66;;;15.74;54.95
13050;BME280;6591;51.446;5.404;2024-02-21T02:44:04;101776.16;;;15.75;54.99
13050;BME280;6591;51.446;5.404;2024-02-21T02:46:32;101778.91;;;15.73;55.18
13050;BME280;6591;51.446;5.404;2024-02-21T02:48:59;101771.69;;;15.75;55.01
13050;BME280;6591;51.446;5.404;2024-02-21T02:51:26;101770.00;;;15.73;54.87
13050;BME280;6591;51.446;5.404;2024-02-21T02:53:53;101745.97;;;15.71;54.96
13050;BME280;6591;51.446;5.404;2024-02-21T02:56:20;101753.16;;;15.71;55.05
13050;BME280;6591;51.446;5.404;2024-02-21T02:58:47;101753.16;;;15.71;55.00
13050;BME280;6591;51.446;5.404;2024-02-21T03:01:14;101750.56;;;15.69;54.67
13050;BME280;6591;51.446;5.404;2024-02-21T03:03:42;101750.56;;;15.69;54.93
13050;BME280;6591;51.446;5.404;2024-02-21T03:06:09;101739.06;;;15.67;54.79
13050;BME280;6591;51.446;5.404;2024-02-21T03:08:36;101748.03;;;15.66;54.98
13050;BME280;6591;51.446;5.404;2024-02-21T03:11:03;101756.16;;;15.64;54.85
13050;BME280;6591;51.446;5.404;2024-02-21T03:13:30;101753.56;;;15.63;55.02
13050;BME280;6591;51.446;5.404;2024-02-21T03:15:58;101750.00;;;15.62;54.97
13050;BME280;6591;51.446;5.404;2024-02-21T03:18:25;101759.78;;;15.63;54.86
13050;BME280;6591;51.446;5.404;2024-02-21T03:20:52;101750.88;;;15.63;55.19
13050;BME280;6591;51.446;5.404;2024-02-21T03:23:20;101724.09;;;15.63;55.24
13050;BME280;6591;51.446;5.404;2024-02-21T03:25:47;101732.84;;;15.66;55.10
13050;BME280;6591;51.446;5.404;2024-02-21T03:28:16;101723.00;;;15.67;54.95
13050;BME280;6591;51.446;5.404;2024-02-21T03:30:43;101717.50;;;15.70;55.11
13050;BME280;6591;51.446;5.404;2024-02-21T03:33:10;101721.13;;;15.69;55.28
13050;BME280;6591;51.446;5.404;2024-02-21T03:35:37;101719.22;;;15.71;55.04
13050;BME280;6591;51.446;5.404;2024-02-21T03:38:04;101716.38;;;15.74;54.89
13050;BME280;6591;51.446;5.404;2024-02-21T03:40:31;101709.97;;;15.77;55.15
13050;BME280;6591;51.446;5.404;2024-02-21T03:42:58;101700.94;;;15.79;55.08
13050;BME280;6591;51.446;5.404;2024-02-21T03:45:25;101699.03;;;15.81;55.08
13050;BME280;6591;51.446;5.404;2024-02-21T03:47:52;101697.16;;;15.83;55.40
13050;BME280;6591;51.446;5.404;2024-02-21T03:50:20;101691.59;;;15.86;55.16
13050;BME280;6591;51.446;5.404;2024-02-21T03:52:47;101691.47;;;15.89;55.08
13050;BME280;6591;51.446;5.404;2024-02-21T03:55:14;101690.53;;;15.90;55.00
13050;BME280;6591;51.446;5.404;2024-02-21T03:57:41;101682.47;;;15.90;55.04
13050;BME280;6591;51.446;5.404;2024-02-21T04:00:09;101677.88;;;15.92;54.67
13050;BME280;6591;51.446;5.404;2024-02-21T04:02:38;101675.31;;;15.91;54.66
13050;BME280;6591;51.446;5.404;2024-02-21T04:05:05;101680.69;;;15.91;54.35
13050;BME280;6591;51.446;5.404;2024-02-21T04:07:33;101682.56;;;15.89;54.68
13050;BME280;6591;51.446;5.404;2024-02-21T04:10:00;101678.22;;;15.86;54.67
13050;BME280;6591;51.446;5.404;2024-02-21T04:12:27;101679.19;;;15.85;54.70
13050;BME280;6591;51.446;5.404;2024-02-21T04:14:54;101689.09;;;15.83;54.64
13050;BME280;6591;51.446;5.404;2024-02-21T04:17:21;101688.31;;;15.81;54.82
13050;BME280;6591;51.446;5.404;2024-02-21T04:19:48;101683.94;;;15.80;54.63
13050;BME280;6591;51.446;5.404;2024-02-21T04:22:15;101694.66;;;15.80;54.54
13050;BME280;6591;51.446;5.404;2024-02-21T04:24:42;101686.59;;;15.80;54.71
13050;BME280;6591;51.446;5.404;2024-02-21T04:27:09;101686.59;;;15.80;54.73
13050;BME280;6591;51.446;5.404;2024-02-21T04:29:36;101690.28;;;15.78;54.69
13050;BME280;6591;51.446;5.404;2024-02-21T04:32:04;101690.22;;;15.79;54.77
13050;BME280;6591;51.446;5.404;2024-02-21T04:34:31;101690.22;;;15.79;54.96
13050;BME280;6591;51.446;5.404;2024-02-21T04:36:59;101676.84;;;15.79;54.77
13050;BME280;6591;51.446;5.404;2024-02-21T04:39:26;101680.47;;;15.78;54.72
13050;BME280;6591;51.446;5.404;2024-02-21T04:41:53;101682.19;;;15.79;54.79
13050;BME280;6591;51.446;5.404;2024-02-21T04:44:20;101683.13;;;15.78;55.36
13050;BME280;6591;51.446;5.404;2024-02-21T04:46:49;101683.06;;;15.80;54.66
13050;BME280;6591;51.446;5.404;2024-02-21T04:49:16;101675.91;;;15.80;54.82
13050;BME280;6591;51.446;5.404;2024-02-21T04:51:44;101673.22;;;15.80;55.01
13050;BME280;6591;51.446;5.404;2024-02-21T04:54:11;101672.34;;;15.80;55.02
13050;BME280;6591;51.446;5.404;2024-02-21T04:56:38;101669.56;;;15.81;55.05
13050;BME280;6591;51.446;5.404;2024-02-21T04:59:05;101666.81;;;15.83;54.86
13050;BME280;6591;51.446;5.404;2024-02-21T05:01:32;101658.84;;;15.81;54.81
13050;BME280;6591;51.446;5.404;2024-02-21T05:03:59;101662.31;;;15.83;54.88
13050;BME280;6591;51.446;5.404;2024-02-21T05:06:26;101656.97;;;15.83;54.68
13050;BME280;6591;51.446;5.404;2024-02-21T05:08:54;101654.22;;;15.85;54.78
13050;BME280;6591;51.446;5.404;2024-02-21T05:11:22;101648.94;;;15.83;54.99
13050;BME280;6591;51.446;5.404;2024-02-21T05:13:50;101649.88;;;15.82;54.99
13050;BME280;6591;51.446;5.404;2024-02-21T05:16:17;101649.88;;;15.82;54.95
13050;BME280;6591;51.446;5.404;2024-02-21T05:18:46;101646.31;;;15.82;54.83
13050;BME280;6591;51.446;5.404;2024-02-21T05:21:14;101642.78;;;15.81;54.57
13050;BME280;6591;51.446;5.404;2024-02-21T05:23:41;101636.56;;;15.81;55.23
13050;BME280;6591;51.446;5.404;2024-02-21T05:26:08;101632.19;;;15.80;54.92
13050;BME280;6591;51.446;5.404;2024-02-21T05:28:36;101634.00;;;15.79;54.92
13050;BME280;6591;51.446;5.404;2024-02-21T05:31:03;101625.16;;;15.77;55.02
13050;BME280;6591;51.446;5.404;2024-02-21T05:33:30;101619.66;;;15.80;54.80
13050;BME280;6591;51.446;5.404;2024-02-21T05:35:57;101605.47;;;15.78;54.93
13050;BME280;6591;51.446;5.404;2024-02-21T05:38:24;101611.69;;;15.79;54.99
13050;BME280;6591;51.446;5.404;2024-02-21T05:40:51;101619.66;;;15.80;54.88
13050;BME280;6591;51.446;5.404;2024-02-21T05:43:18;101600.91;;;15.80;54.65
13050;BME280;6591;51.446;5.404;2024-02-21T05:45:45;101608.06;;;15.80;54.84
13050;BME280;6591;51.446;5.404;2024-02-21T05:48:12;101600.03;;;15.80;54.91
13050;BME280;6591;51.446;5.404;2024-02-21T05:50:39;101602.72;;;15.80;55.24
13050;BME280;6591;51.446;5.404;2024-02-21T05:53:06;101599.06;;;15.81;54.93
13050;BME280;6591;51.446;5.404;2024-02-21T05:55:33;101595.56;;;15.80;54.78
13050;BME280;6591;51.446;5.404;2024-02-21T05:58:01;101595.56;;;15.80;55.17
13050;BME280;6591;51.446;5.404;2024-02-21T06:00:29;101592.88;;;15.80;54.73
13050;BME280;6591;51.446;5.404;2024-02-21T06:02:56;101591.03;;;15.81;55.07
13050;BME280;6591;51.446;5.404;2024-02-21T06:05:24;101584.91;;;15.79;55.11
13050;BME280;6591;51.446;5.404;2024-02-21T06:07:51;101585.78;;;15.79;54.67
13050;BME280;6591;51.446;5.404;2024-02-21T06:10:18;101574.22;;;15.79;54.91
13050;BME280;6591;51.446;5.404;2024-02-21T06:12:45;101565.31;;;15.78;54.61
13050;BME280;6591;51.446;5.404;2024-02-21T06:15:12;101559.00;;;15.79;54.92
13050;BME280;6591;51.446;5.404;2024-02-21T06:17:39;101554.59;;;15.78;54.66
13050;BME280;6591;51.446;5.404;2024-02-21T06:20:07;101545.69;;;15.78;54.77
13050;BME280;6591;51.446;5.404;2024-02-21T06:22:34;101555.53;;;15.77;54.93
13050;BME280;6591;51.446;5.404;2024-02-21T06:25:01;101556.41;;;15.78;54.74
13050;BME280;6591;51.446;5.404;2024-02-21T06:27:29;101554.66;;;15.77;54.96
13050;BME280;6591;51.446;5.404;2024-02-21T06:29:56;101560.97;;;15.76;54.84
13050;BME280;6591;51.446;5.404;2024-02-21T06:32:23;101560.97;;;15.76;54.93
13050;BME280;6591;51.446;5.404;2024-02-21T06:34:50;101553.81;;;15.76;55.06
13050;BME280;6591;51.446;5.404;2024-02-21T06:37:17;101560.03;;;15.77;54.75
13050;BME280;6591;51.446;5.404;2024-02-21T06:39:44;101560.88;;;15.77;54.95
13050;BME280;6591;51.446;5.404;2024-02-21T06:42:11;101560.13;;;15.75;54.70
13050;BME280;6591;51.446;5.404;2024-02-21T06:44:38;101559.16;;;15.76;54.96
13050;BME280;6591;51.446;5.404;2024-02-21T06:47:07;101559.16;;;15.76;54.87
13050;BME280;6591;51.446;5.404;2024-02-21T06:49:35;101564.50;;;15.76;54.83
13050;BME280;6591;51.446;5.404;2024-02-21T06:52:05;101561.84;;;15.76;54.94
13050;BME280;6591;51.446;5.404;2024-02-21T06:54:32;101556.59;;;15.75;55.02
13050;BME280;6591;51.446;5.404;2024-02-21T06:56:59;101561.84;;;15.76;54.96
13050;BME280;6591;51.446;5.404;2024-02-21T06:59:26;101560.03;;;15.77;55.13
13050;BME280;6591;51.446;5.404;2024-02-21T07:01:54;101566.25;;;15.77;54.96
13050;BME280;6591;51.446;5.404;2024-02-21T07:04:24;101566.25;;;15.77;55.01
13050;BME280;6591;51.446;5.404;2024-02-21T07:06:51;101559.94;;;15.78;55.26
13050;BME280;6591;51.446;5.404;2024-02-21T07:09:19;101552.78;;;15.79;55.10
13050;BME280;6591;51.446;5.404;2024-02-21T07:11:46;101553.66;;;15.79;55.07
13050;BME280;6591;51.446;5.404;2024-02-21T07:14:15;101547.25;;;15.82;55.06
13050;BME280;6591;51.446;5.404;2024-02-21T07:16:42;101551.59;;;15.84;55.22
13050;BME280;6591;51.446;5.404;2024-02-21T07:19:09;101538.13;;;15.86;54.91
13050;BME280;6591;51.446;5.404;2024-02-21T07:21:36;101545.16;;;15.87;55.04
13050;BME280;6591;51.446;5.404;2024-02-21T07:24:09;101538.88;;;15.88;55.01
13050;BME280;6591;51.446;5.404;2024-02-21T07:26:36;101538.72;;;15.91;55.10
13050;BME280;6591;51.446;5.404;2024-02-21T07:29:03;101535.84;;;15.94;55.39
13050;BME280;6591;51.446;5.404;2024-02-21T07:31:30;101533.09;;;15.95;55.02
13050;BME280;6591;51.446;5.404;2024-02-21T07:33:57;101521.31;;;15.98;55.12
13050;BME280;6591;51.446;5.404;2024-02-21T07:36:29;101519.50;;;15.98;54.63
13050;BME280;6591;51.446;5.404;2024-02-21T07:38:59;101519.38;;;16.01;55.00
13050;BME280;6591;51.446;5.404;2024-02-21T07:41:26;101514.75;;;16.03;54.96
13050;BME280;6591;51.446;5.404;2024-02-21T07:43:55;101507.59;;;16.04;54.95
13050;BME280;6591;51.446;5.404;2024-02-21T07:46:22;101497.66;;;16.06;54.71
13050;BME280;6591;51.446;5.404;2024-02-21T07:48:51;101489.50;;;16.07;54.97
13050;BME280;6591;51.446;5.404;2024-02-21T07:51:18;101487.63;;;16.09;54.92
13050;BME280;6591;51.446;5.404;2024-02-21T07:53:46;101476.72;;;16.13;54.95
13050;BME280;6591;51.446;5.404;2024-02-21T07:56:15;101469.47;;;16.15;55.12
13050;BME280;6591;51.446;5.404;2024-02-21T07:58:42;101471.13;;;16.17;55.12
13050;BME280;6591;51.446;5.404;2024-02-21T08:01:10;101470.06;;;16.20;55.09
13050;BME280;6591;51.446;5.404;2024-02-21T08:03:38;101462.69;;;16.23;55.23
13050;BME280;6591;51.446;5.404;2024-02-21T08:06:05;101475.94;;;16.26;54.92
13050;BME280;6591;51.446;5.404;2024-02-21T08:08:32;101473.06;;;16.29;55.28
13050;BME280;6591;51.446;5.404;2024-02-21T08:10:59;101463.13;;;16.31;55.35
13050;BME280;6591;51.446;5.404;2024-02-21T08:13:26;101461.97;;;16.35;55.45
13050;BME280;6591;51.446;5.404;2024-02-21T08:15:55;101459.09;;;16.38;55.17
13050;BME280;6591;51.446;5.404;2024-02-21T08:18:23;101451.75;;;16.42;55.27
13050;BME280;6591;51.446;5.404;2024-02-21T08:20:51;101442.56;;;16.46;55.12
13050;BME280;6591;51.446;5.404;2024-02-21T08:23:19;101446.91;;;16.48;54.90
13050;BME280;6591;51.446;5.404;2024-02-21T08:25:46;101438.66;;;16.51;54.87
13050;BME280;6591;51.446;5.404;2024-02-21T08:28:14;101436.66;;;16.55;54.71
13050;BME280;6591;51.446;5.404;2024-02-21T08:30:40;101427.66;;;16.56;54.90
13050;BME280;6591;51.446;5.404;2024-02-21T08:33:11;101425.66;;;16.60;54.79
13050;BME280;6591;51.446;5.404;2024-02-21T08:35:38;101422.81;;;16.63;54.94
13050;BME280;6591;51.446;5.404;2024-02-21T08:38:05;101413.69;;;16.65;55.03
13050;BME280;6591;51.446;5.404;2024-02-21T08:40:32;101412.59;;;16.69;55.36
13050;BME280;6591;51.446;5.404;2024-02-21T08:43:02;101401.66;;;16.72;54.96
13050;BME280;6591;51.446;5.404;2024-02-21T08:45:30;101407.78;;;16.74;54.96
13050;BME280;6591;51.446;5.404;2024-02-21T08:47:57;101411.16;;;16.78;55.04
13050;BME280;6591;51.446;5.404;2024-02-21T08:50:24;101400.22;;;16.81;54.77
13050;BME280;6591;51.446;5.404;2024-02-21T08:52:56;101394.66;;;16.84;54.61
13050;BME280;6591;51.446;5.404;2024-02-21T08:55:25;101392.84;;;16.84;54.69
13050;BME280;6591;51.446;5.404;2024-02-21T08:57:52;101388.44;;;16.83;54.49
13050;BME280;6591;51.446;5.404;2024-02-21T09:00:19;101382.22;;;16.83;54.32
13050;BME280;6591;51.446;5.404;2024-02-21T09:02:51;101376.94;;;16.81;54.77
13050;BME280;6591;51.446;5.404;2024-02-21T09:05:18;101370.81;;;16.79;54.48
13050;BME280;6591;51.446;5.404;2024-02-21T09:07:46;101388.72;;;16.79;54.38
13050;BME280;6591;51.446;5.404;2024-02-21T09:10:14;101372.72;;;16.77;54.65
13050;BME280;6591;51.446;5.404;2024-02-21T09:12:41;101376.34;;;16.76;54.73
13050;BME280;6591;51.446;5.404;2024-02-21T09:15:08;101378.09;;;16.77;54.54
13050;BME280;6591;51.446;5.404;2024-02-21T09:17:35;101371.84;;;16.77;54.51
13050;BME280;6591;51.446;5.404;2024-02-21T09:20:02;101367.44;;;16.76;54.60
13050;BME280;6591;51.446;5.404;2024-02-21T09:22:30;101363.91;;;16.75;54.63
13050;BME280;6591;51.446;5.404;2024-02-21T09:25:01;101356.84;;;16.74;54.80
13050;BME280;6591;51.446;5.404;2024-02-21T09:27:30;101355.97;;;16.74;54.53
13050;BME280;6591;51.446;5.404;2024-02-21T09:29:57;101367.56;;;16.74;54.65
13050;BME280;6591;51.446;5.404;2024-02-21T09:32:25;101356.06;;;16.72;54.75
13050;BME280;6591;51.446;5.404;2024-02-21T09:34:52;101344.47;;;16.72;54.79
13050;BME280;6591;51.446;5.404;2024-02-21T09:37:25;101342.75;;;16.71;54.79
13050;BME280;6591;51.446;5.404;2024-02-21T09:39:53;101340.91;;;16.71;54.84
13050;BME280;6591;51.446;5.404;2024-02-21T09:42:21;101330.19;;;16.71;54.88
13050;BME280;6591;51.446;5.404;2024-02-21T09:44:50;101315.75;;;16.74;54.77
13050;BME280;6591;51.446;5.404;2024-02-21T09:47:34;101310.25;;;16.75;54.73
13050;BME280;6591;51.446;5.404;2024-02-21T09:50:06;101306.44;;;16.79;54.97
13050;BME280;6591;51.446;5.404;2024-02-21T09:52:34;101298.19;;;16.82;54.91
13050;BME280;6591;51.446;5.404;2024-02-21T09:55:03;101285.56;;;16.84;54.79
13050;BME280;6591;51.446;5.404;2024-02-21T09:57:32;101291.59;;;16.88;55.08
13050;BME280;6591;51.446;5.404;2024-02-21T10:00:00;101268.00;;;16.93;54.68
13050;BME280;6591;51.446;5.404;2024-02-21T10:02:39;101268.47;;;17.00;55.07
13050;BME280;6591;51.446;5.404;2024-02-21T10:05:07;101259.81;;;17.09;55.21
13050;BME280;6591;51.446;5.404;2024-02-21T10:07:35;101251.28;;;17.16;55.00
13050;BME280;6591;51.446;5.404;2024-02-21T10:10:03;101249.69;;;17.26;55.04
13050;BME280;6591;51.446;5.404;2024-02-21T10:12:31;101240.91;;;17.37;55.18
13050;BME280;6591;51.446;5.404;2024-02-21T10:15:05;101239.34;;;17.47;55.02
13050;BME280;6591;51.446;5.404;2024-02-21T10:17:33;101240.31;;;17.59;55.37
13050;BME280;6591;51.446;5.404;2024-02-21T10:20:10;101232.53;;;17.68;54.85
13050;BME280;6591;51.446;5.404;2024-02-21T10:22:38;101216.41;;;17.81;54.77
13050;BME280;6591;51.446;5.404;2024-02-21T10:25:16;101205.25;;;17.87;54.75
13050;BME280;6591;51.446;5.404;2024-02-21T10:27:44;101190.19;;;17.97;54.54
13050;BME280;6591;51.446;5.404;2024-02-21T10:30:15;101185.25;;;18.04;54.39
13050;BME280;6591;51.446;5.404;2024-02-21T10:32:53;101169.88;;;18.06;54.30
13050;BME280;6591;51.446;5.404;2024-02-21T10:35:33;101166.00;;;18.10;53.81
13050;BME280;6591;51.446;5.404;2024-02-21T10:38:00;101155.56;;;18.18;54.21
13050;BME280;6591;51.446;5.404;2024-02-21T10:40:29;101140.91;;;18.22;53.68
13050;BME280;6591;51.446;5.404;2024-02-21T10:43:00;101124.44;;;18.27;53.99
13050;BME280;6591;51.446;5.404;2024-02-21T10:45:35;101115.31;;;18.29;53.42
13050;BME280;6591;51.446;5.404;2024-02-21T10:48:15;101115.59;;;18.37;53.54
13050;BME280;6591;51.446;5.404;2024-02-21T10:50:57;101110.53;;;18.45;53.61
13050;BME280;6591;51.446;5.404;2024-02-21T10:53:45;101118.00;;;18.53;53.57
13050;BME280;6591;51.446;5.404;2024-02-21T10:56:31;101117.94;;;18.54;53.30
13050;BME280;6591;51.446;5.404;2024-02-21T10:59:06;101121.91;;;18.61;53.40
13050;BME280;6591;51.446;5.404;2024-02-21T11:01:34;101118.97;;;18.65;52.99
13050;BME280;6591;51.446;5.404;2024-02-21T11:04:09;101132.56;;;18.63;52.60
13050;BME280;6591;51.446;5.404;2024-02-21T11:06:41;101119.22;;;18.61;52.49
13050;BME280;6591;51.446;5.404;2024-02-21T11:09:11;101128.25;;;18.60;52.56
13050;BME280;6591;51.446;5.404;2024-02-21T11:11:44;101118.47;;;18.59;52.35
13050;BME280;6591;51.446;5.404;2024-02-21T11:14:19;101107.81;;;18.58;52.49
13050;BME280;6591;51.446;5.404;2024-02-21T11:16:47;101120.19;;;18.60;52.54
13050;BME280;6591;51.446;5.404;2024-02-21T11:19:23;101091.56;;;18.59;52.17
13050;BME280;6591;51.446;5.404;2024-02-21T11:21:53;101084.25;;;18.61;52.13
13050;BME280;6591;51.446;5.404;2024-02-21T11:27:19;101081.56;;;18.61;52.22
13050;BME280;6591;51.446;5.404;2024-02-21T11:29:57;101062.28;;;18.68;52.29
13050;BME280;6591;51.446;5.404;2024-02-21T11:32:26;101053.59;;;18.75;52.44
13050;BME280;6591;51.446;5.404;2024-02-21T11:35:01;101043.00;;;18.85;52.31
13050;BME280;6591;51.446;5.404;2024-02-21T11:37:35;101054.75;;;18.95;52.43
13050;BME280;6591;51.446;5.404;2024-02-21T11:40:06;101050.41;;;19.05;51.71
13050;BME280;6591;51.446;5.404;2024-02-21T11:42:39;101049.81;;;19.13;51.96
13050;BME280;6591;51.446;5.404;2024-02-21T11:45:08;101047.59;;;19.18;51.58
13050;BME280;6591;51.446;5.404;2024-02-21T11:47:38;101042.13;;;19.19;50.95
13050;BME280;6591;51.446;5.404;2024-02-21T11:50:10;101033.19;;;19.19;50.89
13050;BME280;6591;51.446;5.404;2024-02-21T11:52:38;101010.53;;;19.21;51.03
13050;BME280;6591;51.446;5.404;2024-02-21T11:55:06;100991.69;;;19.21;51.29
13050;BME280;6591;51.446;5.404;2024-02-21T11:57:37;100988.75;;;19.24;51.32
13050;BME280;6591;51.446;5.404;2024-02-21T12:00:16;100985.69;;;19.29;51.34
13050;BME280;6591;51.446;5.404;2024-02-21T12:02:44;100965.25;;;19.37;51.52
13050;BME280;6591;51.446;5.404;2024-02-21T12:05:14;100969.09;;;19.46;51.34
13050;BME280;6591;51.446;5.404;2024-02-21T12:07:42;100974.59;;;19.56;51.13
13050;BME280;6591;51.446;5.404;2024-02-21T12:10:11;100961.34;;;19.64;51.19
13050;BME280;6591;51.446;5.404;2024-02-21T12:12:39;100946.41;;;19.71;50.85
13050;BME280;6591;51.446;5.404;2024-02-21T12:15:08;100940.25;;;19.80;50.53
13050;BME280;6591;51.446;5.404;2024-02-21T12:17:40;100926.16;;;19.87;50.66
13050;BME280;6591;51.446;5.404;2024-02-21T12:20:08;100921.09;;;19.94;50.49
13050;BME280;6591;51.446;5.404;2024-02-21T12:22:48;100904.16;;;20.03;50.53
13050;BME280;6591;51.446;5.404;2024-02-21T12:25:17;100908.66;;;20.14;50.65
13050;BME280;6591;51.446;5.404;2024-02-21T12:27:49;100903.47;;;20.22;50.27
13050;BME280;6591;51.446;5.404;2024-02-21T12:30:16;100898.41;;;20.28;50.16
13050;BME280;6591;51.446;5.404;2024-02-21T12:32:43;100896.94;;;20.36;50.07
13050;BME280;6591;51.446;5.404;2024-02-21T12:35:11;100891.16;;;20.40;49.92
13050;BME280;6591;51.446;5.404;2024-02-21T12:37:39;100894.56;;;20.42;49.32
13050;BME280;6591;51.446;5.404;2024-02-21T12:40:08;100869.41;;;20.42;49.42
13050;BME280;6591;51.446;5.404;2024-02-21T12:42:35;100863.44;;;20.38;49.63
13050;BME280;6591;51.446;5.404;2024-02-21T12:45:03;100853.78;;;20.36;48.90
13050;BME280;6591;51.446;5.404;2024-02-21T12:47:30;100846.91;;;20.32;49.02
13050;BME280;6591;51.446;5.404;2024-02-21T12:49:58;100842.75;;;20.27;48.73
13050;BME280;6591;51.446;5.404;2024-02-21T12:52:25;100837.88;;;20.21;49.18
13050;BME280;6591;51.446;5.404;2024-02-21T12:54:52;100825.94;;;20.14;48.50
13050;BME280;6591;51.446;5.404;2024-02-21T12:57:23;100821.06;;;20.08;48.98
13050;BME280;6591;51.446;5.404;2024-02-21T12:59:54;100801.72;;;20.03;48.97
13050;BME280;6591;51.446;5.404;2024-02-21T13:02:21;100810.19;;;19.99;48.84
13050;BME280;6591;51.446;5.404;2024-02-21T13:04:49;100791.00;;;19.92;48.81
13050;BME280;6591;51.446;5.404;2024-02-21T13:07:16;100804.97;;;19.86;48.75
13050;BME280;6591;51.446;5.404;2024-02-21T13:09:43;100801.81;;;19.81;48.90